ULPBLLET

Guest
Details From ULPB - Besovets
To LLET - Eilat
Flight Number -
Tags Decoded
Created
Modified
Stats Distance 2,083 nm / 3,858 km
Max Altitude 0 ft / 0 m
Waypoints 12
Social Downloads 0
Likes 0
Share VATSIM

Download

Looking for another format? Having issues loading an existing format? Contact us
Advertisement - Login to hide

Notes

Decoded

Route

SUGIR FORMA SUMOL BAG LCA MERVA NAT BGN BOGER ZFR LOT NALSO

ID Type Via Altitude Latitude Longitude Leg Dist Tot Dist Heading (true) Name
O SUGIR FIX - 0 ft / 0 m 63.60000˚ 36.51667˚ - 0 nm - -
FORMA FIX - 0 ft / 0 m 50.35485˚ 35.69662˚ 795 nm 795 nm 182° / 182° -
SUMOL FIX - 0 ft / 0 m 42.79889˚ 33.18111˚ 465 nm 1261 nm 194° / 192° -
BAG VOR - 0 ft / 0 m 40.06953˚ 32.81039˚ 164 nm 1426 nm 186° / 186° BAGLUM VOR-DME
LCA VOR - 0 ft / 0 m 34.87333˚ 33.62667˚ 314 nm 1740 nm 173° / 173° LARNACA VOR-DME
MERVA FIX - 0 ft / 0 m 32.78278˚ 34.54417˚ 133 nm 1874 nm 160° / 160° -
NAT VOR - 0 ft / 0 m 32.33201˚ 34.96801˚ 34 nm 1908 nm 141° / 142° NATANIA VOR-DME
BGN VOR - 0 ft / 0 m 32.01311˚ 34.87523˚ 19 nm 1928 nm 194° / 194° BEN GURION VOR-DME
BOGER FIX - 0 ft / 0 m 30.93254˚ 34.93246˚ 64 nm 1993 nm 177° / 177° -
ZFR VOR - 0 ft / 0 m 30.55833˚ 35.16111˚ 25 nm 2018 nm 152° / 152° ZOFAR VOR-DME
LOT VOR - 0 ft / 0 m 29.60778˚ 34.97556˚ 57 nm 2076 nm 190° / 190° EILOT VOR-DME
O NALSO FIX - 0 ft / 0 m 29.53611˚ 34.87833˚ 6 nm 2083 nm 230° / 230° -

Altitude Profile

Advertisement - Login to hide

Weather


0- 5 10 15 20 25 30 35+ Temperature / ° C

Clouds and Precipitation
Forecast for 2018-05-24 12:00 UTC. Updated 4 hours ago

Ground ~20,000 ft ~40,000 ft Winds

ULPB

Details ICAO ULPB (PES)
Name BESOVETS
Region Russia
Timezone Europe/Moscow (UTC+3.0)
Stats Elevation 151 ft / 46 m (AMSL)
Location 61.885161° 34.154744°
Runways 1
Magnetic Variation 13.070° E

METAR

ULPB 241500Z AUTO 01003MPS 340V060 9999 // NSC 17/M02 Q1028 RMK QFE767/1022

Decode

TAF

Not found

Departure Runways

ID Width Length Bearing (true) Bearing (mag) Surface Threshold Offset Overrun Length
02 157 ft / 48 m 8,192 ft / 2,497 m 23.19° 10.12° Concrete 0 ft / 0 m 0 ft / 0 m
20 157 ft / 48 m 8,192 ft / 2,497 m 203.21° 190.14° Concrete 0 ft / 0 m 0 ft / 0 m

LLET

Details ICAO LLET (ETH)
Name EILAT
Region Israel
Timezone Asia/Jerusalem (UTC+3.0)
Stats Elevation 42 ft / 13 m (AMSL)
Location 29.561268° 34.960111°
Runways 1
Magnetic Variation 4.465° E

METAR

LLET 241450Z 01008KT 330V050 CAVOK 38/M01 Q1007

Decode

TAF

TAF LLET 241107Z 2412/2512 05010KT CAVOK BECMG 2419/2421 35010KT PROB40 2510/2512 18005KT TX38/2412Z TN26/2503Z

Decode

Destination Runways

ID Width Length Bearing (true) Bearing (mag) Surface Threshold Offset Overrun Length
03 89 ft / 27 m 6,249 ft / 1,905 m 27.93° 23.47° Asphalt 945 ft / 288 m 125 ft / 38 m
21 89 ft / 27 m 6,249 ft / 1,905 m 207.93° 203.47° Asphalt 0 ft / 0 m 0 ft / 0 m